Cragford, AL (36255)

11:15 PM CDT on July 30, 2014 (GMT -0500)
Weathers (KALTALLA5) Elev 942 ft | 33.32 °N, 85.96 °W | Change Station

Current weather conditions updated 4 minutes ago

Clear
Clear
61.0 °F
Feels Like 61.0 °F
N
0.0
Wind Variable Wind from SSE

Tomorrow is forecast to be Warmer than today. Chance of late night showers tomorrow night.

Today
High -- | Low -- °F
--% Chance of Precip.
Yesterday
High -- | Low -- °F
Precip. -- in
5:54 AM 7:43 PM
Waxing Crescent, 15% visible
Pressure 30.05 in
Visibility 10.0 miles
Clouds Clear
Dew Point 57 °F
Humidity 88%
Rainfall 0.00 in
Snow Depth Not available.
UV 0 out of 12
Pollen 3.80 out of 12
Air Quality Not available.
Flu Activity Not available.
METAR KALX 310335Z AUTO 00000KT 10SM CLR 22/16 A3005 RMK AO2 T02210164

More Conditions Fewer Conditions

Pressure 30.05 in
Visibility 10.0 miles
Clouds Clear
Dew Point 57 °F
Humidity 88%
Rainfall 0.00 in
Snow Depth Not available.
UV 0 out of 12
Pollen 3.80 out of 12
Air Quality Not available.
Flu Activity Not available.
METAR KALX 310335Z AUTO 00000KT 10SM CLR 22/16 A3005 RMK AO2 T02210164

More Conditions Fewer Conditions

10-Day Weather Forecast

Almanac

Astronomy

Jul. 30, 2014 Rise Set
Actual Time 5:54 AM CDT 7:43 PM CDT
Civil Twilight 5:27 AM CDT 8:10 PM CDT
Nautical Twilight 4:54 AM CDT 8:43 PM CDT
Astronomical Twilight 4:19 AM CDT 9:18 PM CDT
Moon 9:12 AM CDT (7/30) 9:40 PM CDT (7/30)
Length of Visible Light 14h 43m
Length of Day
13h 49m
Tomorrow will be 1m 30s shorter.
Waxing Crescent, 15% of the Moon is Illuminated
Jul 31
Waxing Crescent
Aug 3
First Quarter
Aug 10
Full
Aug 17
Last Quarter
Aug 25
New

Today's Extremes

State Highs State Lows

Community

WunderPhotos

Upload Photos

1,739,233 photos uploaded!

Nearby

Snow Depth

Station Depth Elevation
No new snow has been reported.

Earthquake Activity

City Distance Mag. Time & Date
No recent earthquake activity has been reported nearby.
Minimum magnitude displayed is 2.5.

Coastal Water Temperatures

Place Temperature
No Stations Reporting

Nearby Weather Stations

Station Location Temp. Dew Point Humidity Wind Precip. Elev Updated Type
Weathers, Talladega, AL 61.0 °F 57 °F 88% SSE  at  0.0 mph - / hr 942 ft 11:11 PM CDT Normal
Bacon Level, Roanoke, AL 63.9 °F 63 °F 97% NW  at  0.0 mph 0.00 in / hr 791 ft 11:06 PM CDT Normal
Chulafinnee, AL 64.2 °F 27 °F 24% North  at  0.0 mph 0.00 in / hr 928 ft 11:15 PM CDT Rapid Fire

Show More Stations Show Fewer Stations